SBOSBO CMF / LFLB
Speedbird OnlineSpeedbird Online CMF / LFLB

Chambéry-Savoie Airport
12:42 18.5°C

Location Chambery, France
Latitude: 45.638099670410156
Longitude: 5.880229949951172
Local Time 12:42 on 12 Apr 2024
UTC +2 hours (Europe/Paris)
Currency £1 equals EUR 1.17
METAR LFLB 121030Z AUTO 01003KT 330V090 CAVOK 18/09 Q1033 NOSIG
TAF TAF LFLB 120800Z 1209/1309 36006KT CAVOK BECMG 1217/1219 VRB02KT PROB30 TEMPO 1302/1307 3000 MIFG
Weather As Of 12 Apr 2024 12:42
Description Clear sky
Wind 6 km/h from North (10°)
Cloud Cover 0%
Precipitation Rain: none, Snow: none
Sunrise 06:55
Sunset 20:18
NOTAM 11 active NOTAM
Rotations During the last 90 days there were
23 flights from SOU
22 flights from LCY
11 flights from EDI
22 flights to SOU
20 flights to LCY
10 flights to EDI
Web Wikipedia
Codes IATA: CMF
ICAO: LFLB
Altitude 237 Meter / 779 Feet
Distance 777 KM / 483 Miles
from London.
Runways
RunwayLength (m)Surface
182020Asphalt
362020Asphalt
Radio
TypeDescriptionFrequency
APPCHAMBERY APP123.7
ATISCHAMBERY ATIS124.575
TWRCHAMBERY TWR118.3
Live ATC



Support Speedbird Online

© 2017-2024 Speedbird Online